sensor_id;sensor_type;location;lat;lon;timestamp;temperature;humidity
25250;DHT22;13201;51.148;13.738;2023-04-07T00:01:00;3.50;99.90
25250;DHT22;13201;51.148;13.738;2023-04-07T00:03:25;3.50;99.90
25250;DHT22;13201;51.148;13.738;2023-04-07T00:05:51;3.40;99.90
25250;DHT22;13201;51.148;13.738;2023-04-07T00:08:17;3.50;99.90
25250;DHT22;13201;51.148;13.738;2023-04-07T00:10:43;3.40;99.90
25250;DHT22;13201;51.148;13.738;2023-04-07T00:13:08;3.20;99.90
25250;DHT22;13201;51.148;13.738;2023-04-07T00:15:34;3.00;99.90
25250;DHT22;13201;51.148;13.738;2023-04-07T00:18:00;3.20;99.90
25250;DHT22;13201;51.148;13.738;2023-04-07T00:20:26;3.00;99.90
25250;DHT22;13201;51.148;13.738;2023-04-07T00:22:51;2.90;99.90
25250;DHT22;13201;51.148;13.738;2023-04-07T00:25:17;3.00;99.90
25250;DHT22;13201;51.148;13.738;2023-04-07T00:27:43;2.80;99.90
25250;DHT22;13201;51.148;13.738;2023-04-07T00:30:08;2.80;99.90
25250;DHT22;13201;51.148;13.738;2023-04-07T00:32:35;2.90;99.90
25250;DHT22;13201;51.148;13.738;2023-04-07T00:35:00;2.90;99.90
25250;DHT22;13201;51.148;13.738;2023-04-07T00:37:26;2.90;99.90
25250;DHT22;13201;51.148;13.738;2023-04-07T00:39:52;2.80;99.90
25250;DHT22;13201;51.148;13.738;2023-04-07T00:42:18;2.70;99.90
25250;DHT22;13201;51.148;13.738;2023-04-07T00:44:44;2.80;99.90
25250;DHT22;13201;51.148;13.738;2023-04-07T00:47:10;2.90;99.90
25250;DHT22;13201;51.148;13.738;2023-04-07T00:49:36;2.70;99.90
25250;DHT22;13201;51.148;13.738;2023-04-07T00:52:04;2.70;99.90
25250;DHT22;13201;51.148;13.738;2023-04-07T00:54:30;2.70;99.90
25250;DHT22;13201;51.148;13.738;2023-04-07T00:56:56;2.30;99.90
25250;DHT22;13201;51.148;13.738;2023-04-07T00:59:23;2.30;99.90
25250;DHT22;13201;51.148;13.738;2023-04-07T01:02:07;2.30;99.90
25250;DHT22;13201;51.148;13.738;2023-04-07T01:04:53;2.30;99.90
25250;DHT22;13201;51.148;13.738;2023-04-07T01:30:43;1.00;99.90
25250;DHT22;13201;51.148;13.738;2023-04-07T01:33:10;0.90;99.90
25250;DHT22;13201;51.148;13.738;2023-04-07T01:35:38;1.00;99.90
25250;DHT22;13201;51.148;13.738;2023-04-07T01:38:05;1.10;99.90
25250;DHT22;13201;51.148;13.738;2023-04-07T01:40:33;1.30;99.90
25250;DHT22;13201;51.148;13.738;2023-04-07T01:43:00;1.40;99.90
25250;DHT22;13201;51.148;13.738;2023-04-07T01:45:27;1.50;99.90
25250;DHT22;13201;51.148;13.738;2023-04-07T01:47:53;1.60;99.90
25250;DHT22;13201;51.148;13.738;2023-04-07T01:50:20;1.80;99.90
25250;DHT22;13201;51.148;13.738;2023-04-07T01:52:46;1.70;99.90
25250;DHT22;13201;51.148;13.738;2023-04-07T01:55:12;1.70;99.90
25250;DHT22;13201;51.148;13.738;2023-04-07T01:57:38;1.70;99.90
25250;DHT22;13201;51.148;13.738;2023-04-07T02:00:05;1.90;99.90
25250;DHT22;13201;51.148;13.738;2023-04-07T02:02:32;1.90;99.90
25250;DHT22;13201;51.148;13.738;2023-04-07T02:05:05;1.90;99.90
25250;DHT22;13201;51.148;13.738;2023-04-07T02:07:54;1.80;99.90
25250;DHT22;13201;51.148;13.738;2023-04-07T02:10:24;1.80;99.90
25250;DHT22;13201;51.148;13.738;2023-04-07T02:12:52;1.80;99.90
25250;DHT22;13201;51.148;13.738;2023-04-07T02:15:18;1.80;99.90
25250;DHT22;13201;51.148;13.738;2023-04-07T02:17:48;2.00;99.90
25250;DHT22;13201;51.148;13.738;2023-04-07T02:20:16;2.00;99.90
25250;DHT22;13201;51.148;13.738;2023-04-07T02:22:42;2.00;99.90
25250;DHT22;13201;51.148;13.738;2023-04-07T02:25:26;2.00;99.90
25250;DHT22;13201;51.148;13.738;2023-04-07T02:27:53;2.00;99.90
25250;DHT22;13201;51.148;13.738;2023-04-07T02:30:19;1.90;99.90
25250;DHT22;13201;51.148;13.738;2023-04-07T02:32:45;1.90;99.90
25250;DHT22;13201;51.148;13.738;2023-04-07T02:35:11;2.00;99.90
25250;DHT22;13201;51.148;13.738;2023-04-07T02:37:38;2.00;99.90
25250;DHT22;13201;51.148;13.738;2023-04-07T02:40:04;1.90;99.90
25250;DHT22;13201;51.148;13.738;2023-04-07T02:42:30;1.90;99.90
25250;DHT22;13201;51.148;13.738;2023-04-07T02:44:56;2.00;99.90
25250;DHT22;13201;51.148;13.738;2023-04-07T02:47:22;1.90;99.90
25250;DHT22;13201;51.148;13.738;2023-04-07T02:49:47;1.80;99.90
25250;DHT22;13201;51.148;13.738;2023-04-07T02:52:13;1.80;99.90
25250;DHT22;13201;51.148;13.738;2023-04-07T02:54:39;1.90;99.90
25250;DHT22;13201;51.148;13.738;2023-04-07T02:57:04;1.70;99.90
25250;DHT22;13201;51.148;13.738;2023-04-07T02:59:30;1.80;99.90
25250;DHT22;13201;51.148;13.738;2023-04-07T03:01:56;2.00;99.90
25250;DHT22;13201;51.148;13.738;2023-04-07T03:04:21;1.90;99.90
25250;DHT22;13201;51.148;13.738;2023-04-07T03:06:47;1.70;99.90
25250;DHT22;13201;51.148;13.738;2023-04-07T03:09:13;1.90;99.90
25250;DHT22;13201;51.148;13.738;2023-04-07T03:11:39;2.00;99.90
25250;DHT22;13201;51.148;13.738;2023-04-07T03:14:06;2.00;99.90
25250;DHT22;13201;51.148;13.738;2023-04-07T03:16:31;1.90;99.90
25250;DHT22;13201;51.148;13.738;2023-04-07T03:18:57;1.80;99.90
25250;DHT22;13201;51.148;13.738;2023-04-07T03:21:23;2.00;99.90
25250;DHT22;13201;51.148;13.738;2023-04-07T03:23:48;2.00;99.90
25250;DHT22;13201;51.148;13.738;2023-04-07T03:26:15;2.00;99.90
25250;DHT22;13201;51.148;13.738;2023-04-07T03:28:40;2.00;99.90
25250;DHT22;13201;51.148;13.738;2023-04-07T03:31:06;1.90;99.90
25250;DHT22;13201;51.148;13.738;2023-04-07T03:33:32;1.80;99.90
25250;DHT22;13201;51.148;13.738;2023-04-07T03:35:58;1.80;99.90
25250;DHT22;13201;51.148;13.738;2023-04-07T03:38:24;1.70;99.90
25250;DHT22;13201;51.148;13.738;2023-04-07T03:40:49;1.70;99.90
25250;DHT22;13201;51.148;13.738;2023-04-07T03:43:15;1.80;99.90
25250;DHT22;13201;51.148;13.738;2023-04-07T03:45:41;1.80;99.90
25250;DHT22;13201;51.148;13.738;2023-04-07T03:48:07;1.80;99.90
25250;DHT22;13201;51.148;13.738;2023-04-07T03:50:37;1.70;99.90
25250;DHT22;13201;51.148;13.738;2023-04-07T03:53:03;1.80;99.90
25250;DHT22;13201;51.148;13.738;2023-04-07T03:55:29;1.80;99.90
25250;DHT22;13201;51.148;13.738;2023-04-07T03:57:55;1.70;99.90
25250;DHT22;13201;51.148;13.738;2023-04-07T04:00:21;1.70;99.90
25250;DHT22;13201;51.148;13.738;2023-04-07T04:02:47;1.70;99.90
25250;DHT22;13201;51.148;13.738;2023-04-07T04:05:12;1.70;99.90
25250;DHT22;13201;51.148;13.738;2023-04-07T04:07:38;1.70;99.90
25250;DHT22;13201;51.148;13.738;2023-04-07T04:10:04;1.60;99.90
25250;DHT22;13201;51.148;13.738;2023-04-07T04:12:30;1.60;99.90
25250;DHT22;13201;51.148;13.738;2023-04-07T04:14:56;1.60;99.90
25250;DHT22;13201;51.148;13.738;2023-04-07T04:17:22;1.50;99.90
25250;DHT22;13201;51.148;13.738;2023-04-07T04:19:47;1.40;99.90
25250;DHT22;13201;51.148;13.738;2023-04-07T04:22:13;1.40;99.90
25250;DHT22;13201;51.148;13.738;2023-04-07T04:24:39;1.40;99.90
25250;DHT22;13201;51.148;13.738;2023-04-07T04:27:06;1.50;99.90
25250;DHT22;13201;51.148;13.738;2023-04-07T04:29:32;1.60;99.90
25250;DHT22;13201;51.148;13.738;2023-04-07T04:31:58;1.60;99.90
25250;DHT22;13201;51.148;13.738;2023-04-07T04:34:23;1.50;99.90
25250;DHT22;13201;51.148;13.738;2023-04-07T04:36:49;1.50;99.90
25250;DHT22;13201;51.148;13.738;2023-04-07T04:39:15;1.50;99.90
25250;DHT22;13201;51.148;13.738;2023-04-07T04:41:41;1.50;99.90
25250;DHT22;13201;51.148;13.738;2023-04-07T04:44:06;1.50;99.90
25250;DHT22;13201;51.148;13.738;2023-04-07T04:46:32;1.40;99.90
25250;DHT22;13201;51.148;13.738;2023-04-07T04:48:58;1.40;99.90
25250;DHT22;13201;51.148;13.738;2023-04-07T04:51:23;1.30;99.90
25250;DHT22;13201;51.148;13.738;2023-04-07T04:53:50;1.40;99.90
25250;DHT22;13201;51.148;13.738;2023-04-07T04:56:16;1.40;99.90
25250;DHT22;13201;51.148;13.738;2023-04-07T04:58:41;1.30;99.90
25250;DHT22;13201;51.148;13.738;2023-04-07T05:01:11;1.30;99.90
25250;DHT22;13201;51.148;13.738;2023-04-07T05:03:37;1.30;99.90
25250;DHT22;13201;51.148;13.738;2023-04-07T05:06:03;1.30;99.90
25250;DHT22;13201;51.148;13.738;2023-04-07T05:08:29;1.20;99.90
25250;DHT22;13201;51.148;13.738;2023-04-07T05:10:54;1.20;99.90
25250;DHT22;13201;51.148;13.738;2023-04-07T05:13:20;1.10;99.90
25250;DHT22;13201;51.148;13.738;2023-04-07T05:15:46;1.20;99.90
25250;DHT22;13201;51.148;13.738;2023-04-07T05:18:12;1.30;99.90
25250;DHT22;13201;51.148;13.738;2023-04-07T05:20:38;1.40;99.90
25250;DHT22;13201;51.148;13.738;2023-04-07T05:23:04;1.30;99.90
25250;DHT22;13201;51.148;13.738;2023-04-07T05:25:30;1.30;99.90
25250;DHT22;13201;51.148;13.738;2023-04-07T05:27:57;1.40;99.90
25250;DHT22;13201;51.148;13.738;2023-04-07T05:30:23;1.50;99.90
25250;DHT22;13201;51.148;13.738;2023-04-07T05:32:48;1.50;99.90
25250;DHT22;13201;51.148;13.738;2023-04-07T05:35:14;1.50;99.90
25250;DHT22;13201;51.148;13.738;2023-04-07T05:37:40;1.50;99.90
25250;DHT22;13201;51.148;13.738;2023-04-07T05:40:06;1.60;99.90
25250;DHT22;13201;51.148;13.738;2023-04-07T05:42:32;1.70;99.90
25250;DHT22;13201;51.148;13.738;2023-04-07T05:44:58;1.70;99.90
25250;DHT22;13201;51.148;13.738;2023-04-07T05:47:23;1.80;99.90
25250;DHT22;13201;51.148;13.738;2023-04-07T05:49:49;1.80;99.90
25250;DHT22;13201;51.148;13.738;2023-04-07T05:52:15;1.80;99.90
25250;DHT22;13201;51.148;13.738;2023-04-07T05:54:40;1.80;99.90
25250;DHT22;13201;51.148;13.738;2023-04-07T05:57:07;1.90;99.90
25250;DHT22;13201;51.148;13.738;2023-04-07T05:59:33;2.00;99.90
25250;DHT22;13201;51.148;13.738;2023-04-07T06:01:59;2.10;99.90
25250;DHT22;13201;51.148;13.738;2023-04-07T06:04:25;2.20;99.90
25250;DHT22;13201;51.148;13.738;2023-04-07T06:06:51;2.20;99.90
25250;DHT22;13201;51.148;13.738;2023-04-07T06:09:23;2.20;99.90
25250;DHT22;13201;51.148;13.738;2023-04-07T06:11:48;2.30;99.90
25250;DHT22;13201;51.148;13.738;2023-04-07T06:14:16;2.30;99.90
25250;DHT22;13201;51.148;13.738;2023-04-07T06:16:42;2.30;99.90
25250;DHT22;13201;51.148;13.738;2023-04-07T06:19:08;2.40;99.90
25250;DHT22;13201;51.148;13.738;2023-04-07T06:21:33;2.50;99.90
25250;DHT22;13201;51.148;13.738;2023-04-07T06:23:59;2.70;99.90
25250;DHT22;13201;51.148;13.738;2023-04-07T06:26:25;2.70;99.90
25250;DHT22;13201;51.148;13.738;2023-04-07T06:28:51;2.80;99.90
25250;DHT22;13201;51.148;13.738;2023-04-07T06:31:17;3.00;99.90
25250;DHT22;13201;51.148;13.738;2023-04-07T06:33:43;3.10;99.90
25250;DHT22;13201;51.148;13.738;2023-04-07T06:36:10;3.20;99.90
25250;DHT22;13201;51.148;13.738;2023-04-07T06:38:35;3.30;99.90
25250;DHT22;13201;51.148;13.738;2023-04-07T06:41:01;3.40;99.90
25250;DHT22;13201;51.148;13.738;2023-04-07T06:43:27;3.60;99.90
25250;DHT22;13201;51.148;13.738;2023-04-07T06:45:53;3.70;99.90
25250;DHT22;13201;51.148;13.738;2023-04-07T06:48:18;3.80;99.90
25250;DHT22;13201;51.148;13.738;2023-04-07T06:50:51;4.00;99.90
25250;DHT22;13201;51.148;13.738;2023-04-07T06:53:17;4.10;99.90
25250;DHT22;13201;51.148;13.738;2023-04-07T06:55:43;4.40;99.90
25250;DHT22;13201;51.148;13.738;2023-04-07T06:58:08;4.40;99.90
25250;DHT22;13201;51.148;13.738;2023-04-07T07:00:34;4.60;99.90
25250;DHT22;13201;51.148;13.738;2023-04-07T07:03:00;4.60;99.90
25250;DHT22;13201;51.148;13.738;2023-04-07T07:05:26;4.70;99.90
25250;DHT22;13201;51.148;13.738;2023-04-07T07:07:53;4.80;99.90
25250;DHT22;13201;51.148;13.738;2023-04-07T07:10:18;4.90;99.90
25250;DHT22;13201;51.148;13.738;2023-04-07T07:12:48;5.00;99.90
25250;DHT22;13201;51.148;13.738;2023-04-07T07:15:14;5.10;99.90
25250;DHT22;13201;51.148;13.738;2023-04-07T07:17:39;5.10;99.90
25250;DHT22;13201;51.148;13.738;2023-04-07T07:20:06;5.10;99.90
25250;DHT22;13201;51.148;13.738;2023-04-07T07:22:32;5.20;99.90
25250;DHT22;13201;51.148;13.738;2023-04-07T07:24:57;5.20;99.90
25250;DHT22;13201;51.148;13.738;2023-04-07T07:27:23;5.30;99.90
25250;DHT22;13201;51.148;13.738;2023-04-07T07:29:49;5.30;99.90
25250;DHT22;13201;51.148;13.738;2023-04-07T07:32:14;5.50;99.90
25250;DHT22;13201;51.148;13.738;2023-04-07T07:34:40;5.60;99.90
25250;DHT22;13201;51.148;13.738;2023-04-07T07:37:06;5.80;99.90
25250;DHT22;13201;51.148;13.738;2023-04-07T07:39:31;5.90;99.90
25250;DHT22;13201;51.148;13.738;2023-04-07T07:41:58;6.10;99.90
25250;DHT22;13201;51.148;13.738;2023-04-07T07:44:24;6.10;99.90
25250;DHT22;13201;51.148;13.738;2023-04-07T07:46:50;6.30;99.90
25250;DHT22;13201;51.148;13.738;2023-04-07T07:49:15;6.40;99.90
25250;DHT22;13201;51.148;13.738;2023-04-07T07:51:41;6.70;99.90
25250;DHT22;13201;51.148;13.738;2023-04-07T07:54:07;6.80;99.90
25250;DHT22;13201;51.148;13.738;2023-04-07T07:56:34;7.00;99.90
25250;DHT22;13201;51.148;13.738;2023-04-07T07:59:00;7.10;99.90
25250;DHT22;13201;51.148;13.738;2023-04-07T08:01:25;7.20;99.90
25250;DHT22;13201;51.148;13.738;2023-04-07T08:03:51;7.20;99.90
25250;DHT22;13201;51.148;13.738;2023-04-07T08:06:17;7.20;99.90
25250;DHT22;13201;51.148;13.738;2023-04-07T08:08:43;7.30;99.90
25250;DHT22;13201;51.148;13.738;2023-04-07T08:11:08;7.50;99.90
25250;DHT22;13201;51.148;13.738;2023-04-07T08:13:34;7.70;99.90
25250;DHT22;13201;51.148;13.738;2023-04-07T08:16:00;7.80;99.90
25250;DHT22;13201;51.148;13.738;2023-04-07T08:18:26;8.00;99.90
25250;DHT22;13201;51.148;13.738;2023-04-07T08:20:51;8.00;99.90
25250;DHT22;13201;51.148;13.738;2023-04-07T08:23:18;8.00;99.90
25250;DHT22;13201;51.148;13.738;2023-04-07T08:25:43;8.10;99.90
25250;DHT22;13201;51.148;13.738;2023-04-07T08:28:09;8.20;99.90
25250;DHT22;13201;51.148;13.738;2023-04-07T08:30:35;8.40;99.90
25250;DHT22;13201;51.148;13.738;2023-04-07T08:33:04;8.40;99.90
25250;DHT22;13201;51.148;13.738;2023-04-07T08:35:30;8.60;99.90
25250;DHT22;13201;51.148;13.738;2023-04-07T08:37:56;8.70;99.90
25250;DHT22;13201;51.148;13.738;2023-04-07T08:40:21;8.60;99.90
25250;DHT22;13201;51.148;13.738;2023-04-07T08:42:48;8.60;99.90
25250;DHT22;13201;51.148;13.738;2023-04-07T08:45:15;8.80;99.90
25250;DHT22;13201;51.148;13.738;2023-04-07T08:47:42;8.80;99.90
25250;DHT22;13201;51.148;13.738;2023-04-07T08:50:11;9.00;99.90
25250;DHT22;13201;51.148;13.738;2023-04-07T08:52:43;9.00;99.90
25250;DHT22;13201;51.148;13.738;2023-04-07T08:55:10;9.20;99.90
25250;DHT22;13201;51.148;13.738;2023-04-07T08:57:36;9.20;99.90
25250;DHT22;13201;51.148;13.738;2023-04-07T09:00:02;9.50;99.90
25250;DHT22;13201;51.148;13.738;2023-04-07T09:02:36;9.60;99.90
25250;DHT22;13201;51.148;13.738;2023-04-07T09:05:03;9.70;99.90
25250;DHT22;13201;51.148;13.738;2023-04-07T09:07:34;9.70;99.80
25250;DHT22;13201;51.148;13.738;2023-04-07T09:10:00;9.80;99.40
25250;DHT22;13201;51.148;13.738;2023-04-07T09:12:27;10.00;99.60
25250;DHT22;13201;51.148;13.738;2023-04-07T09:14:53;10.10;98.90
25250;DHT22;13201;51.148;13.738;2023-04-07T09:17:19;10.20;99.00
25250;DHT22;13201;51.148;13.738;2023-04-07T09:19:46;10.20;98.70
25250;DHT22;13201;51.148;13.738;2023-04-07T09:22:12;10.20;98.30
25250;DHT22;13201;51.148;13.738;2023-04-07T09:24:40;10.20;98.30
25250;DHT22;13201;51.148;13.738;2023-04-07T09:27:14;10.40;98.00
25250;DHT22;13201;51.148;13.738;2023-04-07T09:29:42;10.40;97.80
25250;DHT22;13201;51.148;13.738;2023-04-07T09:32:09;10.40;97.50
25250;DHT22;13201;51.148;13.738;2023-04-07T09:34:40;10.40;97.30
25250;DHT22;13201;51.148;13.738;2023-04-07T09:37:07;10.40;96.90
25250;DHT22;13201;51.148;13.738;2023-04-07T09:39:50;10.40;96.30
25250;DHT22;13201;51.148;13.738;2023-04-07T09:42:16;10.40;96.40
25250;DHT22;13201;51.148;13.738;2023-04-07T09:44:43;10.60;96.20
25250;DHT22;13201;51.148;13.738;2023-04-07T09:47:08;10.80;95.60
25250;DHT22;13201;51.148;13.738;2023-04-07T09:49:49;10.70;95.30
25250;DHT22;13201;51.148;13.738;2023-04-07T09:52:16;10.30;95.30
25250;DHT22;13201;51.148;13.738;2023-04-07T09:54:45;10.20;95.40
25250;DHT22;13201;51.148;13.738;2023-04-07T09:57:12;10.50;95.60
25250;DHT22;13201;51.148;13.738;2023-04-07T09:59:43;10.70;95.90
25250;DHT22;13201;51.148;13.738;2023-04-07T10:02:10;10.90;95.60
25250;DHT22;13201;51.148;13.738;2023-04-07T10:04:36;10.90;95.10
25250;DHT22;13201;51.148;13.738;2023-04-07T10:07:04;10.70;95.10
25250;DHT22;13201;51.148;13.738;2023-04-07T10:09:30;10.70;95.40
25250;DHT22;13201;51.148;13.738;2023-04-07T10:11:57;10.60;95.80
25250;DHT22;13201;51.148;13.738;2023-04-07T10:14:29;10.70;95.40
25250;DHT22;13201;51.148;13.738;2023-04-07T10:16:55;10.70;95.10
25250;DHT22;13201;51.148;13.738;2023-04-07T10:19:22;10.70;95.00
25250;DHT22;13201;51.148;13.738;2023-04-07T10:21:50;10.50;94.60
25250;DHT22;13201;51.148;13.738;2023-04-07T10:27:03;10.70;94.60
25250;DHT22;13201;51.148;13.738;2023-04-07T10:29:35;10.90;94.90
25250;DHT22;13201;51.148;13.738;2023-04-07T10:32:03;11.10;94.80
25250;DHT22;13201;51.148;13.738;2023-04-07T10:37:18;11.40;94.50
25250;DHT22;13201;51.148;13.738;2023-04-07T10:39:52;11.40;94.50
25250;DHT22;13201;51.148;13.738;2023-04-07T10:45:06;11.20;93.60
25250;DHT22;13201;51.148;13.738;2023-04-07T10:47:32;11.00;93.70
25250;DHT22;13201;51.148;13.738;2023-04-07T10:50:14;11.10;94.00
25250;DHT22;13201;51.148;13.738;2023-04-07T10:52:41;11.10;93.60
25250;DHT22;13201;51.148;13.738;2023-04-07T10:58:32;11.40;95.20
25250;DHT22;13201;51.148;13.738;2023-04-07T11:03:39;11.80;93.50
25250;DHT22;13201;51.148;13.738;2023-04-07T11:06:08;12.00;94.20
25250;DHT22;13201;51.148;13.738;2023-04-07T11:08:37;11.80;92.60
25250;DHT22;13201;51.148;13.738;2023-04-07T11:11:04;11.80;93.40
25250;DHT22;13201;51.148;13.738;2023-04-07T11:13:49;11.60;92.70
25250;DHT22;13201;51.148;13.738;2023-04-07T11:16:18;11.80;93.40
25250;DHT22;13201;51.148;13.738;2023-04-07T11:18:45;12.10;92.90
25250;DHT22;13201;51.148;13.738;2023-04-07T11:21:17;12.10;92.20
25250;DHT22;13201;51.148;13.738;2023-04-07T11:23:44;12.10;92.50
25250;DHT22;13201;51.148;13.738;2023-04-07T11:26:12;12.20;92.70
25250;DHT22;13201;51.148;13.738;2023-04-07T11:28:52;12.30;93.50
25250;DHT22;13201;51.148;13.738;2023-04-07T11:31:22;12.20;92.90
25250;DHT22;13201;51.148;13.738;2023-04-07T11:36:26;12.50;93.10
25250;DHT22;13201;51.148;13.738;2023-04-07T11:38:53;12.50;92.40
25250;DHT22;13201;51.148;13.738;2023-04-07T11:41:18;12.30;92.40
25250;DHT22;13201;51.148;13.738;2023-04-07T11:43:44;12.20;93.00
25250;DHT22;13201;51.148;13.738;2023-04-07T11:46:12;12.40;93.20
25250;DHT22;13201;51.148;13.738;2023-04-07T11:48:40;12.50;93.60
25250;DHT22;13201;51.148;13.738;2023-04-07T11:51:21;12.70;91.90
25250;DHT22;13201;51.148;13.738;2023-04-07T11:53:54;12.70;93.10
25250;DHT22;13201;51.148;13.738;2023-04-07T11:56:20;12.30;92.40
25250;DHT22;13201;51.148;13.738;2023-04-07T11:58:53;12.60;92.10
25250;DHT22;13201;51.148;13.738;2023-04-07T12:01:20;13.20;92.80
25250;DHT22;13201;51.148;13.738;2023-04-07T12:04:00;13.20;91.80
25250;DHT22;13201;51.148;13.738;2023-04-07T12:06:31;13.60;91.80
25250;DHT22;13201;51.148;13.738;2023-04-07T12:09:04;13.10;93.20
25250;DHT22;13201;51.148;13.738;2023-04-07T12:11:30;12.60;92.60
25250;DHT22;13201;51.148;13.738;2023-04-07T12:13:57;12.70;92.50
25250;DHT22;13201;51.148;13.738;2023-04-07T12:16:23;12.90;92.50
25250;DHT22;13201;51.148;13.738;2023-04-07T12:18:49;13.60;93.30
25250;DHT22;13201;51.148;13.738;2023-04-07T12:21:16;13.30;92.40
25250;DHT22;13201;51.148;13.738;2023-04-07T12:23:42;13.00;91.80
25250;DHT22;13201;51.148;13.738;2023-04-07T12:26:08;13.20;92.40
25250;DHT22;13201;51.148;13.738;2023-04-07T12:28:36;12.80;92.30
25250;DHT22;13201;51.148;13.738;2023-04-07T12:31:02;12.80;91.90
25250;DHT22;13201;51.148;13.738;2023-04-07T12:33:28;12.70;92.50
25250;DHT22;13201;51.148;13.738;2023-04-07T12:35:54;12.60;91.60
25250;DHT22;13201;51.148;13.738;2023-04-07T12:38:20;12.70;91.60
25250;DHT22;13201;51.148;13.738;2023-04-07T12:40:45;12.90;91.90
25250;DHT22;13201;51.148;13.738;2023-04-07T12:43:11;12.90;91.60
25250;DHT22;13201;51.148;13.738;2023-04-07T12:45:37;12.60;91.60
25250;DHT22;13201;51.148;13.738;2023-04-07T12:48:02;12.70;91.70
25250;DHT22;13201;51.148;13.738;2023-04-07T12:50:28;12.40;91.80
25250;DHT22;13201;51.148;13.738;2023-04-07T12:52:55;12.50;92.30
25250;DHT22;13201;51.148;13.738;2023-04-07T12:55:23;12.50;91.10
25250;DHT22;13201;51.148;13.738;2023-04-07T12:57:49;12.50;91.20
25250;DHT22;13201;51.148;13.738;2023-04-07T13:00:14;12.40;91.90
25250;DHT22;13201;51.148;13.738;2023-04-07T13:02:41;12.60;91.50
25250;DHT22;13201;51.148;13.738;2023-04-07T13:05:08;12.70;91.60
25250;DHT22;13201;51.148;13.738;2023-04-07T13:07:33;12.80;91.50
25250;DHT22;13201;51.148;13.738;2023-04-07T13:10:01;12.80;91.10
25250;DHT22;13201;51.148;13.738;2023-04-07T13:12:27;12.70;92.00
25250;DHT22;13201;51.148;13.738;2023-04-07T13:14:52;12.70;92.40
25250;DHT22;13201;51.148;13.738;2023-04-07T13:17:18;12.80;92.40
25250;DHT22;13201;51.148;13.738;2023-04-07T13:19:44;12.80;92.50
25250;DHT22;13201;51.148;13.738;2023-04-07T13:22:12;12.60;91.90
25250;DHT22;13201;51.148;13.738;2023-04-07T13:24:38;12.70;92.10
25250;DHT22;13201;51.148;13.738;2023-04-07T13:27:04;12.60;91.50
25250;DHT22;13201;51.148;13.738;2023-04-07T13:29:30;12.70;92.30
25250;DHT22;13201;51.148;13.738;2023-04-07T13:32:10;12.90;92.00
25250;DHT22;13201;51.148;13.738;2023-04-07T13:34:38;12.60;91.60
25250;DHT22;13201;51.148;13.738;2023-04-07T13:37:04;12.70;92.00
25250;DHT22;13201;51.148;13.738;2023-04-07T13:39:30;12.90;92.60
25250;DHT22;13201;51.148;13.738;2023-04-07T13:41:56;12.70;92.60
25250;DHT22;13201;51.148;13.738;2023-04-07T13:44:23;12.60;92.40
25250;DHT22;13201;51.148;13.738;2023-04-07T13:46:49;12.40;92.30
25250;DHT22;13201;51.148;13.738;2023-04-07T13:49:15;12.50;93.30
25250;DHT22;13201;51.148;13.738;2023-04-07T13:51:41;12.70;93.10
25250;DHT22;13201;51.148;13.738;2023-04-07T13:54:06;12.70;93.50
25250;DHT22;13201;51.148;13.738;2023-04-07T13:56:32;12.60;92.80
25250;DHT22;13201;51.148;13.738;2023-04-07T13:59:00;12.70;93.10
25250;DHT22;13201;51.148;13.738;2023-04-07T14:01:26;12.40;92.80
25250;DHT22;13201;51.148;13.738;2023-04-07T14:03:53;12.50;93.10
25250;DHT22;13201;51.148;13.738;2023-04-07T14:06:19;12.60;93.60
25250;DHT22;13201;51.148;13.738;2023-04-07T14:08:47;12.80;93.60
25250;DHT22;13201;51.148;13.738;2023-04-07T14:11:17;12.80;92.20
25250;DHT22;13201;51.148;13.738;2023-04-07T14:13:43;12.50;92.80
25250;DHT22;13201;51.148;13.738;2023-04-07T14:16:09;12.70;92.80
25250;DHT22;13201;51.148;13.738;2023-04-07T14:18:35;12.60;92.90
25250;DHT22;13201;51.148;13.738;2023-04-07T14:21:01;12.60;92.80
25250;DHT22;13201;51.148;13.738;2023-04-07T14:23:28;12.90;92.70
25250;DHT22;13201;51.148;13.738;2023-04-07T14:25:54;12.80;92.50
25250;DHT22;13201;51.148;13.738;2023-04-07T14:28:20;12.80;92.80
25250;DHT22;13201;51.148;13.738;2023-04-07T14:30:45;13.10;92.50
25250;DHT22;13201;51.148;13.738;2023-04-07T14:33:11;12.90;92.30
25250;DHT22;13201;51.148;13.738;2023-04-07T14:35:38;13.00;92.10
25250;DHT22;13201;51.148;13.738;2023-04-07T14:38:04;13.30;92.20
25250;DHT22;13201;51.148;13.738;2023-04-07T14:40:30;13.50;92.90
25250;DHT22;13201;51.148;13.738;2023-04-07T14:42:56;13.00;92.40
25250;DHT22;13201;51.148;13.738;2023-04-07T14:45:23;13.00;92.80
25250;DHT22;13201;51.148;13.738;2023-04-07T14:47:49;12.90;92.70
25250;DHT22;13201;51.148;13.738;2023-04-07T14:50:15;12.70;92.20
25250;DHT22;13201;51.148;13.738;2023-04-07T14:52:40;12.50;92.70
25250;DHT22;13201;51.148;13.738;2023-04-07T14:55:06;12.60;92.90
25250;DHT22;13201;51.148;13.738;2023-04-07T14:57:32;12.50;92.70
25250;DHT22;13201;51.148;13.738;2023-04-07T14:59:58;12.20;92.40
25250;DHT22;13201;51.148;13.738;2023-04-07T15:02:23;11.90;93.00
25250;DHT22;13201;51.148;13.738;2023-04-07T15:04:49;11.40;93.40
25250;DHT22;13201;51.148;13.738;2023-04-07T15:07:15;11.60;93.70
25250;DHT22;13201;51.148;13.738;2023-04-07T15:09:40;11.50;93.80
25250;DHT22;13201;51.148;13.738;2023-04-07T15:12:06;11.40;93.80
25250;DHT22;13201;51.148;13.738;2023-04-07T15:14:32;11.40;93.90
25250;DHT22;13201;51.148;13.738;2023-04-07T15:16:58;11.50;93.40
25250;DHT22;13201;51.148;13.738;2023-04-07T15:19:23;11.70;93.30
25250;DHT22;13201;51.148;13.738;2023-04-07T15:21:49;11.70;93.60
25250;DHT22;13201;51.148;13.738;2023-04-07T15:24:15;11.40;94.50
25250;DHT22;13201;51.148;13.738;2023-04-07T15:26:40;10.90;95.10
25250;DHT22;13201;51.148;13.738;2023-04-07T15:29:06;11.10;95.60
25250;DHT22;13201;51.148;13.738;2023-04-07T15:31:32;10.80;96.10
25250;DHT22;13201;51.148;13.738;2023-04-07T15:33:57;10.80;95.80
25250;DHT22;13201;51.148;13.738;2023-04-07T15:36:23;10.80;96.00
25250;DHT22;13201;51.148;13.738;2023-04-07T15:38:48;10.80;96.10
25250;DHT22;13201;51.148;13.738;2023-04-07T15:41:15;10.80;96.60
25250;DHT22;13201;51.148;13.738;2023-04-07T15:43:41;10.60;96.50
25250;DHT22;13201;51.148;13.738;2023-04-07T15:46:06;10.40;96.80
25250;DHT22;13201;51.148;13.738;2023-04-07T15:48:32;10.20;97.40
25250;DHT22;13201;51.148;13.738;2023-04-07T15:50:58;10.20;97.80
25250;DHT22;13201;51.148;13.738;2023-04-07T15:53:23;10.20;98.10
25250;DHT22;13201;51.148;13.738;2023-04-07T15:55:49;10.30;97.90
25250;DHT22;13201;51.148;13.738;2023-04-07T15:58:15;10.30;98.30
25250;DHT22;13201;51.148;13.738;2023-04-07T16:00:41;10.40;98.50
25250;DHT22;13201;51.148;13.738;2023-04-07T16:03:07;10.20;98.60